createdAt,value
2018-03-30T00:00:52.870Z,40.17
2018-03-30T00:03:20.590Z,42.53
2018-03-30T00:05:48.302Z,36.70
2018-03-30T00:08:16.317Z,40.23
2018-03-30T00:10:49.530Z,45.27
2018-03-30T00:13:17.334Z,44.03
2018-03-30T00:15:44.894Z,53.33
2018-03-30T00:18:12.478Z,57.13
2018-03-30T00:20:40.026Z,52.73
2018-03-30T00:23:08.006Z,60.23
2018-03-30T00:25:35.876Z,54.73
2018-03-30T00:28:03.544Z,50.77
2018-03-30T00:30:31.081Z,55.47
2018-03-30T00:32:58.756Z,54.00
2018-03-30T00:35:26.526Z,53.90
2018-03-30T00:37:54.086Z,56.17
2018-03-30T00:40:21.745Z,54.30
2018-03-30T00:42:49.518Z,53.07
2018-03-30T00:45:17.113Z,52.07
2018-03-30T00:47:44.833Z,51.10
2018-03-30T00:50:12.757Z,50.03
2018-03-30T00:52:40.389Z,52.20
2018-03-30T00:55:09.386Z,49.67
2018-03-30T00:57:36.926Z,49.83
2018-03-30T01:00:04.490Z,51.37
2018-03-30T01:02:32.107Z,53.73
2018-03-30T01:04:59.745Z,54.13
2018-03-30T01:07:27.550Z,62.70
2018-03-30T01:09:55.157Z,61.37
2018-03-30T01:12:22.880Z,52.70
2018-03-30T01:14:50.932Z,53.43
2018-03-30T01:17:19.046Z,56.83
2018-03-30T01:19:47.534Z,61.10
2018-03-30T01:22:15.913Z,63.30
2018-03-30T01:24:43.870Z,62.43
2018-03-30T01:27:12.341Z,68.87
2018-03-30T01:29:40.650Z,60.30
2018-03-30T01:32:08.227Z,59.20
2018-03-30T01:34:36.105Z,61.23
2018-03-30T01:37:03.650Z,61.47
2018-03-30T01:39:31.246Z,60.27
2018-03-30T01:41:58.898Z,60.33
2018-03-30T01:44:26.705Z,68.30
2018-03-30T01:46:54.288Z,64.83
2018-03-30T01:49:21.834Z,64.77
2018-03-30T01:51:49.382Z,63.53
2018-03-30T01:54:16.962Z,60.20
2018-03-30T01:56:44.510Z,63.37
2018-03-30T01:59:12.130Z,57.83
2018-03-30T02:01:40.506Z,61.70
2018-03-30T02:04:08.253Z,65.37
2018-03-30T02:06:35.793Z,69.07
2018-03-30T02:09:03.401Z,72.67
2018-03-30T02:11:31.785Z,71.37
2018-03-30T02:13:59.329Z,84.37
2018-03-30T02:16:27.841Z,79.43
2018-03-30T02:18:55.425Z,76.43
2018-03-30T02:21:22.967Z,73.83
2018-03-30T02:23:50.549Z,75.67
2018-03-30T02:26:18.090Z,78.83
2018-03-30T02:28:45.634Z,73.13
2018-03-30T02:31:14.410Z,73.77
2018-03-30T02:33:41.957Z,76.47
2018-03-30T02:36:09.502Z,76.83
2018-03-30T02:38:37.604Z,75.20
2018-03-30T02:41:05.155Z,73.80
2018-03-30T02:43:32.818Z,79.60
2018-03-30T02:46:00.418Z,76.17
2018-03-30T02:48:27.977Z,72.17
2018-03-30T02:50:55.522Z,78.00
2018-03-30T02:53:23.118Z,74.97
2018-03-30T02:55:50.669Z,79.00
2018-03-30T02:58:18.240Z,81.83
2018-03-30T03:00:45.912Z,91.90
2018-03-30T03:03:14.230Z,77.27
2018-03-30T03:05:41.813Z,69.97
2018-03-30T03:08:09.539Z,69.57
2018-03-30T03:10:37.081Z,69.17
2018-03-30T03:13:04.809Z,62.63
2018-03-30T03:15:32.425Z,59.83
2018-03-30T03:18:00.329Z,63.57
2018-03-30T03:20:27.955Z,51.77
2018-03-30T03:22:55.562Z,58.90
2018-03-30T03:25:24.614Z,62.90
2018-03-30T03:27:52.345Z,60.10
2018-03-30T03:30:19.986Z,69.87
2018-03-30T03:32:47.557Z,76.00
2018-03-30T03:35:15.870Z,72.53
2018-03-30T03:37:43.630Z,71.33
2018-03-30T03:40:11.173Z,72.50
2018-03-30T03:42:38.718Z,71.70
2018-03-30T03:45:06.317Z,63.83
2018-03-30T03:47:34.038Z,63.13
2018-03-30T03:50:01.766Z,62.97
2018-03-30T03:52:29.350Z,66.17
2018-03-30T03:54:57.082Z,70.17
2018-03-30T03:57:24.621Z,81.63
2018-03-30T03:59:52.194Z,70.03
2018-03-30T04:02:19.751Z,76.90
2018-03-30T04:04:47.310Z,68.53
2018-03-30T04:07:14.900Z,58.60
2018-03-30T04:09:42.465Z,61.47
2018-03-30T04:12:10.769Z,66.53
2018-03-30T04:14:38.602Z,64.23
2018-03-30T04:17:06.910Z,58.27
2018-03-30T04:19:34.672Z,53.23
2018-03-30T04:22:02.275Z,56.47
2018-03-30T04:24:30.099Z,55.93
2018-03-30T04:26:57.898Z,54.90
2018-03-30T04:29:25.489Z,56.47
2018-03-30T04:31:53.035Z,64.70
2018-03-30T04:34:20.633Z,62.93
2018-03-30T04:36:48.411Z,52.47
2018-03-30T04:39:15.949Z,58.63
2018-03-30T04:41:43.489Z,60.87
2018-03-30T04:44:11.874Z,55.23
2018-03-30T04:46:39.431Z,57.20
2018-03-30T04:49:07.864Z,51.80
2018-03-30T04:51:35.566Z,55.33
2018-03-30T04:54:03.966Z,63.17
2018-03-30T04:56:31.531Z,70.93
2018-03-30T04:58:59.129Z,69.50
2018-03-30T05:01:26.685Z,59.40
2018-03-30T05:03:54.238Z,68.80
2018-03-30T05:06:21.829Z,59.63
2018-03-30T05:08:49.561Z,53.20
2018-03-30T05:11:17.097Z,58.60
2018-03-30T05:13:44.686Z,66.00
2018-03-30T05:16:12.241Z,69.27
2018-03-30T05:18:40.550Z,72.03
2018-03-30T05:21:08.277Z,73.87
2018-03-30T05:23:35.818Z,72.33
2018-03-30T05:26:03.538Z,70.90
2018-03-30T05:28:31.110Z,76.83
2018-03-30T05:30:59.421Z,71.43
2018-03-30T05:33:27.033Z,67.30
2018-03-30T05:35:55.373Z,68.57
2018-03-30T05:38:23.687Z,74.90
2018-03-30T05:40:51.233Z,74.27
2018-03-30T05:43:19.683Z,76.53
2018-03-30T05:45:47.230Z,73.40
2018-03-30T05:48:14.954Z,57.87
2018-03-30T05:50:42.545Z,51.70
2018-03-30T05:53:10.321Z,47.50
2018-03-30T05:55:38.159Z,47.70
2018-03-30T05:58:05.899Z,45.53
2018-03-30T06:00:33.464Z,46.30
2018-03-30T06:03:01.006Z,45.93
2018-03-30T06:05:29.506Z,44.63
2018-03-30T06:07:57.486Z,33.97
2018-03-30T06:10:25.031Z,35.80
2018-03-30T06:12:52.616Z,57.33
2018-03-30T06:15:20.166Z,74.63
2018-03-30T06:17:47.893Z,54.70
2018-03-30T06:20:15.473Z,38.13
2018-03-30T06:22:43.656Z,44.93
2018-03-30T06:25:11.210Z,54.40
2018-03-30T06:27:38.803Z,48.73
2018-03-30T06:30:06.354Z,36.93
2018-03-30T06:32:33.922Z,35.63
2018-03-30T06:35:01.720Z,40.33
2018-03-30T06:37:29.621Z,38.40
2018-03-30T06:39:57.167Z,32.30
2018-03-30T06:42:24.751Z,25.87
2018-03-30T06:44:52.354Z,22.10
2018-03-30T06:47:19.922Z,22.47
2018-03-30T06:49:48.303Z,32.07
2018-03-30T06:52:16.750Z,26.03
2018-03-30T06:54:44.314Z,31.37
2018-03-30T06:57:12.044Z,42.80
2018-03-30T06:59:39.717Z,35.13
2018-03-30T07:02:07.270Z,36.93
2018-03-30T07:04:35.022Z,42.13
2018-03-30T07:07:02.566Z,40.20
2018-03-30T07:09:30.110Z,49.63
2018-03-30T07:11:57.695Z,44.13
2018-03-30T07:14:25.411Z,39.83
2018-03-30T07:16:53.320Z,40.50
2018-03-30T07:19:20.898Z,42.33
2018-03-30T07:21:48.447Z,41.63
2018-03-30T07:24:16.425Z,115.17
2018-03-30T07:26:44.021Z,37.53
2018-03-30T07:29:12.417Z,33.10
2018-03-30T07:31:40.133Z,42.93
2018-03-30T07:34:07.762Z,53.20
2018-03-30T07:36:35.453Z,32.13
2018-03-30T07:39:03.496Z,55.17
2018-03-30T07:41:31.096Z,42.87
2018-03-30T07:43:58.786Z,35.37
2018-03-30T07:46:26.342Z,28.73
2018-03-30T07:48:53.929Z,36.20
2018-03-30T07:51:21.582Z,25.27
2018-03-30T07:53:49.458Z,30.40
2018-03-30T07:56:17.090Z,25.27
2018-03-30T07:58:44.641Z,29.53
2018-03-30T08:01:13.107Z,24.93
2018-03-30T08:03:41.468Z,19.83
2018-03-30T08:06:10.810Z,19.33
2018-03-30T08:08:38.352Z,15.47
2018-03-30T08:11:06.704Z,27.07
2018-03-30T08:13:34.257Z,48.00
2018-03-30T08:16:01.814Z,67.60
2018-03-30T08:18:30.926Z,43.40
2018-03-30T08:20:58.602Z,22.77
2018-03-30T08:23:26.154Z,20.03
2018-03-30T08:25:54.882Z,41.20
2018-03-30T08:28:22.435Z,34.30
2018-03-30T08:30:50.083Z,25.20
2018-03-30T08:33:17.970Z,11.77
2018-03-30T08:35:45.527Z,7.67
2018-03-30T08:38:13.115Z,9.30
2018-03-30T08:40:40.720Z,13.93
2018-03-30T08:43:08.286Z,8.43
2018-03-30T08:45:35.878Z,8.50
2018-03-30T08:48:04.286Z,13.37
2018-03-30T08:50:31.841Z,7.33
2018-03-30T08:52:59.527Z,27.03
2018-03-30T08:55:27.975Z,25.03
2018-03-30T08:57:55.570Z,6.70
2018-03-30T09:00:23.125Z,9.37
2018-03-30T09:02:51.477Z,10.50
2018-03-30T09:05:20.046Z,9.67
2018-03-30T09:07:47.595Z,9.63
2018-03-30T09:10:15.353Z,18.33
2018-03-30T09:12:42.900Z,16.03
2018-03-30T09:15:10.441Z,7.70
2018-03-30T09:17:38.122Z,10.67
2018-03-30T09:20:05.667Z,8.03
2018-03-30T09:22:33.224Z,6.77
2018-03-30T09:25:00.806Z,6.70
2018-03-30T09:27:28.787Z,6.60
2018-03-30T09:29:56.339Z,6.97
2018-03-30T09:32:23.979Z,6.33
2018-03-30T09:34:51.622Z,6.53
2018-03-30T09:37:19.168Z,6.60
2018-03-30T09:39:47.101Z,6.83
2018-03-30T09:42:14.817Z,8.20
2018-03-30T09:44:42.567Z,9.90
2018-03-30T09:47:10.535Z,18.03
2018-03-30T09:49:38.092Z,8.93
2018-03-30T09:52:06.184Z,13.00
2018-03-30T09:54:33.842Z,12.43
2018-03-30T09:57:01.710Z,12.47
2018-03-30T09:59:29.322Z,12.90
2018-03-30T10:01:57.133Z,11.13
2018-03-30T10:04:28.667Z,13.70
2018-03-30T10:06:56.260Z,8.33
2018-03-30T10:09:24.145Z,10.87
2018-03-30T10:11:51.693Z,8.67
2018-03-30T10:14:19.245Z,11.17
2018-03-30T10:16:46.965Z,14.10
2018-03-30T10:19:14.515Z,8.03
2018-03-30T10:21:42.399Z,6.93
2018-03-30T10:24:10.059Z,7.67
2018-03-30T10:26:37.606Z,5.37
2018-03-30T10:29:05.929Z,5.47
2018-03-30T10:31:33.619Z,5.93
2018-03-30T10:34:01.716Z,5.20
2018-03-30T10:36:29.623Z,6.00
2018-03-30T10:38:57.508Z,5.63
2018-03-30T10:41:25.859Z,5.97
2018-03-30T10:43:53.615Z,4.67
2018-03-30T10:46:21.529Z,4.73
2018-03-30T10:48:49.897Z,4.60
2018-03-30T10:51:17.864Z,3.90
2018-03-30T10:53:45.902Z,11.20
2018-03-30T10:56:13.471Z,21.27
2018-03-30T10:58:41.033Z,6.87
2018-03-30T11:01:08.624Z,4.77
2018-03-30T11:03:36.191Z,5.20
2018-03-30T11:06:04.715Z,4.10
2018-03-30T11:08:32.473Z,3.37
2018-03-30T11:11:00.194Z,3.23
2018-03-30T11:13:28.538Z,4.07
2018-03-30T11:15:56.447Z,3.50
2018-03-30T11:18:24.017Z,3.80
2018-03-30T11:20:52.259Z,6.37
2018-03-30T11:23:20.626Z,4.70
2018-03-30T11:25:48.934Z,4.00
2018-03-30T11:28:16.505Z,4.37
2018-03-30T11:30:44.311Z,3.80
2018-03-30T11:33:11.865Z,4.00
2018-03-30T11:35:40.979Z,4.13
2018-03-30T11:38:10.384Z,3.93
2018-03-30T11:40:37.928Z,4.30
2018-03-30T11:43:05.486Z,4.23
2018-03-30T11:45:33.074Z,3.87
2018-03-30T11:48:00.632Z,3.87
2018-03-30T11:50:29.302Z,3.37
2018-03-30T11:52:56.946Z,3.40
2018-03-30T11:55:24.634Z,3.50
2018-03-30T11:57:53.161Z,6.70
2018-03-30T12:00:21.011Z,5.40
2018-03-30T12:02:48.555Z,7.43
2018-03-30T12:05:16.105Z,13.50
2018-03-30T12:07:44.474Z,6.03
2018-03-30T12:10:12.034Z,3.77
2018-03-30T12:12:40.347Z,3.40
2018-03-30T12:15:08.068Z,2.77
2018-03-30T12:17:36.848Z,3.87
2018-03-30T12:20:04.674Z,5.00
2018-03-30T12:22:32.273Z,8.30
2018-03-30T12:25:00.066Z,9.57
2018-03-30T12:27:27.657Z,9.60
2018-03-30T12:29:55.573Z,5.60
2018-03-30T12:32:24.190Z,4.70
2018-03-30T12:34:51.740Z,4.37
2018-03-30T12:37:19.324Z,4.60
2018-03-30T12:39:46.949Z,4.10
2018-03-30T12:42:14.493Z,4.33
2018-03-30T12:44:42.846Z,3.90
2018-03-30T12:47:10.398Z,5.03
2018-03-30T12:49:38.001Z,6.83
2018-03-30T12:52:05.597Z,3.40
2018-03-30T12:54:33.326Z,3.17
2018-03-30T12:57:00.876Z,4.43
2018-03-30T12:59:28.579Z,6.50
2018-03-30T13:01:56.133Z,4.03
2018-03-30T13:04:23.826Z,7.50
2018-03-30T13:06:51.655Z,7.20
2018-03-30T13:09:19.297Z,6.43
2018-03-30T13:11:46.870Z,4.30
2018-03-30T13:14:14.474Z,17.53
2018-03-30T13:16:42.120Z,9.00
2018-03-30T13:19:09.971Z,3.10
2018-03-30T13:21:37.703Z,2.37
2018-03-30T13:24:05.366Z,4.17
2018-03-30T13:26:32.920Z,4.57
2018-03-30T13:29:00.742Z,8.47
2018-03-30T13:31:28.580Z,5.27
2018-03-30T13:33:56.481Z,4.67
2018-03-30T13:36:24.077Z,5.43
2018-03-30T13:38:51.970Z,3.57
2018-03-30T13:41:19.923Z,3.87
2018-03-30T13:43:48.685Z,3.87
2018-03-30T13:46:17.113Z,3.17
2018-03-30T13:48:44.670Z,3.13
2018-03-30T13:51:18.190Z,8.43
2018-03-30T13:56:55.925Z,2.97
2018-03-30T13:59:25.227Z,3.40
2018-03-30T14:02:10.286Z,7.63
2018-03-30T14:04:48.564Z,4.60
2018-03-30T14:07:34.951Z,4.60
2018-03-30T14:10:11.463Z,4.30
2018-03-30T14:12:44.925Z,4.07
2018-03-30T14:15:14.256Z,3.27
2018-03-30T14:17:43.668Z,5.37
2018-03-30T14:20:22.519Z,17.47
2018-03-30T14:22:52.710Z,5.67
2018-03-30T14:25:21.202Z,72.10
2018-03-30T14:27:57.509Z,5.87
2018-03-30T14:30:25.109Z,9.00
2018-03-30T14:39:03.104Z,79.37
2018-03-30T14:41:30.691Z,21.67
2018-03-30T14:44:00.168Z,27.73
2018-03-30T14:46:28.945Z,7.07
2018-03-30T14:48:56.627Z,3.87
2018-03-30T14:51:29.744Z,5.27
2018-03-30T14:53:58.590Z,9.50
2018-03-30T14:56:29.154Z,6.73
2018-03-30T14:58:59.882Z,4.23
2018-03-30T15:01:47.701Z,9.80
2018-03-30T15:04:33.151Z,12.33
2018-03-30T15:07:06.473Z,35.97
2018-03-30T15:09:40.386Z,48.47
2018-03-30T15:12:19.441Z,8.43
2018-03-30T15:18:02.531Z,14.73
2018-03-30T15:20:31.116Z,9.10
2018-03-30T15:23:25.500Z,18.43
2018-03-30T15:26:00.123Z,43.30
2018-03-30T15:28:28.555Z,22.47
2018-03-30T15:31:03.228Z,30.00
2018-03-30T15:36:32.064Z,30.87
2018-03-30T15:38:59.637Z,38.07
2018-03-30T15:41:28.351Z,51.60
2018-03-30T15:43:56.208Z,28.67
2018-03-30T15:46:25.276Z,37.90
2018-03-30T15:48:52.960Z,18.43
2018-03-30T15:51:30.202Z,32.80
2018-03-30T15:53:57.268Z,22.97
2018-03-30T15:56:26.166Z,11.97
2018-03-30T15:58:53.803Z,61.13
2018-03-30T16:01:21.365Z,140.93
2018-03-30T16:03:48.937Z,121.13
2018-03-30T16:06:16.606Z,50.83
2018-03-30T16:08:45.255Z,143.87
2018-03-30T16:14:09.533Z,90.23
2018-03-30T16:16:37.514Z,64.83
2018-03-30T16:19:04.765Z,79.37
2018-03-30T16:21:31.846Z,102.00
2018-03-30T16:23:58.982Z,73.30
2018-03-30T16:26:26.313Z,60.73
2018-03-30T16:28:53.376Z,56.97
2018-03-30T16:31:20.516Z,165.00
2018-03-30T16:33:47.612Z,250.23
2018-03-30T16:36:14.686Z,324.47
2018-03-30T16:38:42.327Z,201.37
2018-03-30T16:41:09.536Z,239.93
2018-03-30T16:43:36.721Z,176.17
2018-03-30T16:46:04.626Z,74.97
2018-03-30T16:48:31.776Z,68.67
2018-03-30T16:50:58.889Z,62.80
2018-03-30T16:53:26.021Z,180.90
2018-03-30T16:55:53.534Z,96.30
2018-03-30T16:58:20.621Z,67.60
2018-03-30T17:00:48.645Z,95.10
2018-03-30T17:03:15.761Z,100.33
2018-03-30T17:05:43.630Z,90.27
2018-03-30T17:08:10.757Z,73.47
2018-03-30T17:10:37.828Z,65.07
2018-03-30T17:13:05.077Z,65.87
2018-03-30T17:15:32.171Z,76.57
2018-03-30T17:17:59.225Z,69.47
2018-03-30T17:20:26.308Z,32.43
2018-03-30T17:22:54.418Z,58.67
2018-03-30T17:25:21.482Z,83.97
2018-03-30T17:27:48.540Z,104.27
2018-03-30T17:30:15.659Z,75.33
2018-03-30T17:32:42.734Z,60.33
2018-03-30T17:35:09.798Z,56.27
2018-03-30T17:37:37.028Z,55.60
2018-03-30T17:40:04.373Z,76.57
2018-03-30T17:42:31.452Z,61.00
2018-03-30T17:44:59.859Z,124.60
2018-03-30T17:47:27.237Z,91.77
2018-03-30T17:49:54.290Z,139.93
2018-03-30T17:52:21.404Z,114.70
2018-03-30T17:54:48.463Z,129.93
2018-03-30T17:57:15.927Z,138.57
2018-03-30T17:59:43.001Z,136.43
2018-03-30T18:02:10.066Z,164.87
2018-03-30T18:04:37.234Z,132.83
2018-03-30T18:07:05.076Z,203.17
2018-03-30T18:09:32.153Z,189.77
2018-03-30T18:12:00.038Z,177.70
2018-03-30T18:14:27.261Z,173.30
2018-03-30T18:16:55.154Z,251.33
2018-03-30T18:19:22.259Z,257.03
2018-03-30T18:21:49.324Z,501.63
2018-03-30T18:24:16.825Z,347.13
2018-03-30T18:26:44.136Z,377.67
2018-03-30T18:29:11.977Z,466.67
2018-03-30T18:31:39.194Z,510.23
2018-03-30T18:34:06.332Z,471.87
2018-03-30T18:36:33.406Z,388.77
2018-03-30T18:39:00.481Z,568.87
2018-03-30T18:41:27.744Z,980.60
2018-03-30T18:43:55.037Z,488.23
2018-03-30T18:46:22.102Z,609.23
2018-03-30T18:48:49.462Z,447.07
2018-03-30T18:51:16.590Z,554.27
2018-03-30T18:53:43.832Z,261.10
2018-03-30T18:56:10.950Z,217.20
2018-03-30T18:58:38.799Z,171.73
2018-03-30T19:01:06.823Z,180.60
2018-03-30T19:03:33.942Z,152.20
2018-03-30T19:06:01.221Z,257.93
2018-03-30T19:08:29.419Z,256.50
2018-03-30T19:10:56.552Z,239.23
2018-03-30T19:13:23.626Z,213.97
2018-03-30T19:15:50.714Z,210.33
2018-03-30T19:18:18.063Z,172.10
2018-03-30T19:20:45.633Z,183.60
2018-03-30T19:23:12.806Z,155.00
2018-03-30T19:25:39.908Z,187.03
2018-03-30T19:28:07.013Z,136.33
2018-03-30T19:30:34.086Z,132.13
2018-03-30T19:33:01.979Z,175.03
2018-03-30T19:35:29.086Z,158.87
2018-03-30T19:37:56.150Z,170.10
2018-03-30T19:40:23.215Z,146.97
2018-03-30T19:42:50.343Z,151.67
2018-03-30T19:45:17.692Z,166.07
2018-03-30T19:47:44.888Z,157.87
2018-03-30T19:50:17.943Z,150.53
2018-03-30T19:52:48.622Z,137.63
2018-03-30T19:55:17.259Z,148.80
2018-03-30T19:57:48.706Z,267.77
2018-03-30T20:00:16.687Z,136.50
2018-03-30T20:02:43.955Z,388.17
2018-03-30T20:05:14.627Z,198.93
2018-03-30T20:07:42.643Z,134.93
2018-03-30T20:10:11.786Z,220.30
2018-03-30T20:12:39.157Z,203.23
2018-03-30T20:15:14.111Z,244.03
2018-03-30T20:17:42.232Z,204.47
2018-03-30T20:20:09.894Z,181.77
2018-03-30T20:22:37.145Z,182.27
2018-03-30T20:25:05.353Z,228.40
2018-03-30T20:27:33.770Z,179.23
2018-03-30T20:30:03.246Z,217.77
2018-03-30T20:32:30.861Z,207.80
2018-03-30T20:34:59.755Z,144.77
2018-03-30T20:37:29.795Z,152.07
2018-03-30T20:39:57.260Z,214.50
2018-03-30T20:42:25.661Z,189.13
2018-03-30T20:44:53.151Z,221.33
2018-03-30T20:47:20.489Z,238.07
2018-03-30T20:49:47.870Z,222.73
2018-03-30T20:52:15.219Z,196.47
2018-03-30T20:54:42.804Z,226.93
2018-03-30T20:57:10.142Z,180.03
2018-03-30T20:59:37.386Z,250.40
2018-03-30T21:02:05.020Z,164.13
2018-03-30T21:04:32.226Z,197.27
2018-03-30T21:07:00.802Z,169.00
2018-03-30T21:09:27.911Z,165.03
2018-03-30T21:11:55.027Z,157.10
2018-03-30T21:14:22.147Z,147.13
2018-03-30T21:16:49.219Z,128.73
2018-03-30T21:19:17.124Z,146.30
2018-03-30T21:21:44.187Z,154.47
2018-03-30T21:24:11.252Z,176.20
2018-03-30T21:26:38.362Z,168.43
2018-03-30T21:29:05.445Z,164.60
2018-03-30T21:31:32.522Z,140.33
2018-03-30T21:34:00.416Z,156.03
2018-03-30T21:36:27.695Z,163.37
2018-03-30T21:38:54.839Z,193.80
2018-03-30T21:41:22.215Z,380.23
2018-03-30T21:43:49.545Z,378.43
2018-03-30T21:46:16.633Z,231.87
2018-03-30T21:48:44.858Z,187.83
2018-03-30T21:51:11.988Z,169.50
2018-03-30T21:53:39.064Z,189.50
2018-03-30T21:56:06.443Z,214.53
2018-03-30T21:58:33.567Z,471.53
2018-03-30T22:01:00.639Z,255.20
2018-03-30T22:03:27.760Z,134.27
2018-03-30T22:05:54.826Z,195.40
2018-03-30T22:08:21.895Z,405.43
2018-03-30T22:10:49.006Z,96.07
2018-03-30T22:13:16.086Z,162.27
2018-03-30T22:15:43.160Z,167.40
2018-03-30T22:18:10.446Z,142.67
2018-03-30T22:20:37.528Z,136.73
2018-03-30T22:23:04.596Z,133.60
2018-03-30T22:25:32.642Z,148.77
2018-03-30T22:27:59.742Z,155.30
2018-03-30T22:30:26.908Z,102.33
2018-03-30T22:32:54.035Z,182.33
2018-03-30T22:35:21.097Z,164.77
2018-03-30T22:37:48.370Z,289.90
2018-03-30T22:40:15.524Z,244.80
2018-03-30T22:42:42.582Z,286.77
2018-03-30T22:45:09.643Z,142.33
2018-03-30T22:47:37.544Z,127.83
2018-03-30T22:50:04.622Z,254.37
2018-03-30T22:52:31.683Z,155.17
2018-03-30T22:54:59.183Z,134.07
2018-03-30T22:57:26.268Z,116.77
2018-03-30T22:59:53.322Z,87.87
2018-03-30T23:02:20.423Z,94.97
2018-03-30T23:04:48.324Z,258.97
2018-03-30T23:07:15.399Z,87.87
2018-03-30T23:09:42.523Z,70.53
2018-03-30T23:12:09.588Z,805.70
2018-03-30T23:14:36.637Z,91.17
2018-03-30T23:17:03.745Z,74.73
2018-03-30T23:19:30.855Z,82.83
2018-03-30T23:21:57.975Z,96.93
2018-03-30T23:24:25.218Z,114.40
2018-03-30T23:26:52.308Z,69.50
2018-03-30T23:29:20.140Z,105.33
2018-03-30T23:31:47.242Z,135.97
2018-03-30T23:34:14.316Z,102.57
2018-03-30T23:36:41.564Z,87.40
2018-03-30T23:39:08.893Z,113.87
2018-03-30T23:41:36.138Z,77.20
2018-03-30T23:44:03.216Z,77.50
2018-03-30T23:46:30.345Z,84.73
2018-03-30T23:48:57.468Z,110.53
2018-03-30T23:51:24.522Z,71.60
2018-03-30T23:53:51.846Z,226.10
2018-03-30T23:56:18.905Z,52.77
2018-03-30T23:58:45.965Z,70.87
